עמוד ראשי
METAR-TAF:

METAR-TAF

שדות תעופה :

קורדובה, ארגנטינה

קו רוחב: 31-19S, קו אורך: 064-13W, גובה: 484מטר

תצפית מזג אוויר נוכחית

הדו"ח נערך לפני 1 שעות ו 1דקות, בשעה 21:00 UTC
רוח 8קשר מכיוון דרום/דרום-מזרח
טמפרטורת 19 צלסיוס
לחות 37%
לחץ 1011 hPa
ראות 10 קילומטר או יותר
ללא עננים שבסיסם נמוך מ 5000 רגל או קומולונימבוס

METAR: SACO 142100Z 16008KT CAVOK 19/04 Q1011 NOSIG

זמן: 19:01 (22:01 UTC)

תחזית

הדו"ח נערך לפני 5 שעות ו 1דקות, בשעה 17:00 UTC
תחזית בתוקף מ 14 ב 18 UTC עד 15 ב 18 UTC
רוח 15קשר מכיוון דרום
ראות 10 קילומטר או יותר
עננים בינוניים בגובה 4500רגל
יעשה מ
15 ב 03 UTC עד 15 ב 06 UTC
רוח 5קשר מכיוון מערב/דרום-מערב
ראות: 8000מטר
עננים פזורים בגובה 3000רגל
הסתברות 40%
15 ב 08 UTC עד 15 ב 11 UTC
רוח 5קשר מכיוון מערב/צפון-מערב
ראות: 5000מטר
עננים פזורים בגובה 1200רגל
אד
יעשה מ
15 ב 13 UTC עד 15 ב 16 UTC
רוח 4קשר עם כיוונים משתנים
ראות 10 קילומטר או יותר

TAF: SACO 141700Z 1418/1518 18015KT 9999 BKN045 TX19/1519Z TN08/1511Z BECMG 1503/1506 25005KT 8000 SCT030 PROB40 1508/1511 29005KT 5000 BR SCT012 BECMG 1513/1516 VRB04KT 9999 NSW NSC

תצפיות ותחזיות מזג אוויר לגבי יותר מ- 4,000 שדות תעופה ברחבי העולם. דוחות METAR ו- TAF.

התחנות הזמינות מסומנות בנקודות צהובות ואדומות על גבי המפה.

העבר את העכבר לנקודה הצבעונית על מנת לראות את שם התחנה.

לאחר מכן, לחץ כדי לראות את תוכן ואת תחזיות מזג האוויר.

כדי לשנות את המפה: לחץ על הכפתורים הירוקים עם הפלוס השחור כדי להתקרב; על הכפתור הירוק עם המקף כדי להתרחק; או בחיצים הירוקים למפות סמוכות.


METAR-TAF: